DW9572 Weather Reports


time (UTC)temp
C
wind
direction
speed
KPH
gust
KPH
rain 1hr
cm
rain 24hr
cm
rain mn
cm
humidity
%
barometer
mb
20240222120003 -17 0.0 0.0 0.00 0.00 0.00 1024.3
20240222114543 -17 0.0 0.0 0.00 0.00 0.00 1024.0
20240222113049 5 281 4.8 12.9 0.00 0.00 0.00 87 1023.8
20240222111510 4 290 6.4 22.5 0.00 0.00 0.00 87 1023.7
20240222110011 5 260 9.7 14.5 0.00 0.00 0.00 88 1023.7
20240222104551 4 248 6.4 11.3 0.00 0.00 0.00 90 1023.6
20240222103047 5 225 4.8 11.3 0.00 0.00 0.00 88 1023.6
20240222101529 5 285 6.4 11.3 0.00 0.00 0.00 88 1023.5
20240222100049 5 225 1.6 4.8 0.00 0.00 0.00 87 1023.4
20240222094507 5 307 3.2 6.4 0.00 0.00 0.00 84 1023.3
20240222093011 5 236 3.2 9.7 0.00 0.00 0.00 86 1023.2
20240222091605 5 224 8.0 12.9 0.00 0.00 0.00 85 1023.1
20240222090046 6 238 8.0 11.3 0.00 0.00 0.00 85 1023.0
20240222084543 5 240 8.0 11.3 0.00 0.00 0.00 85 1022.9
20240222083025 5 239 6.4 9.7 0.00 0.00 0.00 86 1022.9
20240222081522 6 242 4.8 6.4 0.00 0.00 0.00 85 1022.8
20240222080004 6 53 0.0 3.2 0.00 0.00 0.00 83 1022.6
20240222074503 6 232 4.8 8.0 0.00 0.00 0.00 84 1022.6
20240222073046 7 288 8.0 9.7 0.00 0.00 0.00 82 1022.3
20240222071543 6 258 4.8 11.3 0.00 0.00 0.00 85 1022.2
20240222070023 6 238 6.4 9.7 0.00 0.00 0.00 88 1022.0
20240222064525 6 240 3.2 8.0 0.00 0.00 0.00 86 1021.9
20240222063003 6 215 4.8 9.7 0.00 0.00 0.00 85 1021.8
20240222061502 6 273 0.0 14.5 0.00 0.00 0.00 85 1021.6
20240222060042 7 224 16.1 17.7 0.00 0.00 0.00 85 1021.4
20240222054542 7 228 12.9 14.5 0.00 0.00 0.00 84 1021.3
20240222053023 7 230 14.5 16.1 0.00 0.00 0.00 84 1021.2
20240222051524 7 230 9.7 12.9 0.00 0.00 0.00 83 1021.0
20240222050107 7 240 9.7 14.5 0.00 0.00 0.00 83 1020.8
20240222044558 8 232 11.3 14.5 0.00 0.00 0.00 79 1020.6
20240222043039 9 211 9.7 12.9 0.00 0.00 0.00 77 1020.4
20240222041537 9 281 6.4 14.5 0.00 0.00 0.00 77 1020.2
20240222040025 9 269 0.0 9.7 0.00 0.00 0.00 78 1020.0
20240222034519 8 257 8.0 11.3 0.00 0.00 0.00 81 1019.9
20240222033057 8 233 12.9 17.7 0.00 0.00 0.00 82 1019.7
20240222031606 7 226 16.1 19.3 0.00 0.00 0.00 85 1019.5
20240222030041 7 224 19.3 24.1 0.00 0.00 0.00 85 1019.2
20240222024534 7 245 14.5 19.3 0.00 0.00 0.00 83 1019.0
20240222023014 7 193 9.7 14.5 0.00 0.00 0.00 84 1019.0
20240222021512 8 155 6.4 11.3 0.00 0.00 0.00 83 1019.0
20240222020053 8 105 6.4 12.9 0.00 0.00 0.00 84 1018.8
20240222014603 8 194 3.2 17.7 0.00 0.00 0.00 84 1018.3
20240222013035 8 152 9.7 14.5 0.00 0.00 0.00 83 1018.1
20240222011530 9 128 4.8 6.4 0.00 0.00 0.00 81 1018.1
20240222010013 10 150 8.0 16.1 0.00 0.00 0.00 80 1017.8
20240222004508 10 179 17.7 27.4 0.00 0.00 0.00 76 1017.4
20240222003049 10 199 17.7 25.7 0.00 0.00 0.00 75 1017.2
20240222001551 11 205 17.7 22.5 0.00 0.00 0.00 74 1017.2
20240222000031 11 200 11.3 19.3 0.00 0.00 0.00 73 1017.1
20240221234540 11 194 12.9 19.3 0.00 0.00 0.00 72 1016.9
20240221233008 11 233 9.7 16.1 0.00 0.00 0.00 73 1017.0
20240221231506 11 222 9.7 16.1 0.00 0.00 0.00 74 1016.9
20240221230048 10 224 17.7 24.1 0.00 0.00 0.00 73 1016.8
20240221224546 11 230 16.1 25.7 0.00 0.00 0.00 73 1016.9
20240221223025 10 228 14.5 19.3 0.00 0.00 0.00 76 1016.8
20240221221533 10 188 17.7 24.1 0.00 0.00 0.00 77 1016.8
20240221220011 10 162 24.1 30.6 0.00 0.00 0.00 77 1016.7
20240221214509 10 207 19.3 27.4 0.00 0.00 0.00 78 1016.6
20240221213024 9 193 19.3 24.1 0.00 0.00 0.00 81 1016.6
20240221211504 9 166 16.1 22.5 0.00 0.00 0.00 81 1016.6
20240221210009 8 169 12.9 20.9 0.00 0.00 0.00 82 1016.5
20240221204606 8 165 11.3 14.5 0.00 0.00 0.00 85 1016.5
20240221203102 8 143 6.4 9.7 0.00 0.00 0.00 86 1016.6
20240221201554 7 158 6.4 9.7 0.00 0.00 0.00 87 1016.5
20240221200035 7 134 1.6 9.7 0.00 0.00 0.00 88 1016.5
20240221194534 7 133 3.2 8.0 0.00 0.00 0.00 88 1016.6
20240221193018 7 117 4.8 8.0 0.00 0.00 0.00 88 1016.4
20240221191517 7 118 0.0 0.0 0.00 0.00 0.00 88 1016.5
20240221190057 7 105 0.0 0.0 0.00 0.00 0.00 89 1016.2
20240221184559 7 62 0.0 0.0 0.00 0.00 0.00 89 1016.3
20240221183039 7 66 0.0 0.0 0.00 0.00 0.00 89 1016.1
20240221181535 7 75 0.0 1.6 0.00 0.00 0.00 91 1016.1
20240221180014 6 104 0.0 0.0 0.00 0.00 0.00 90 1015.9
20240221174513 6 97 0.0 0.0 0.00 0.00 0.00 90 1015.8
20240221173054 6 95 0.0 0.0 0.00 0.00 0.00 91 1015.6
20240221171559 6 94 0.0 0.0 0.00 0.00 0.00 92 1015.5
20240221170033 6 95 0.0 0.0 0.00 0.00 0.00 92 1015.3
20240221164524 5 95 0.0 0.0 0.00 0.00 0.00 92 1015.1
20240221163004 5 155 0.0 0.0 0.00 0.00 0.00 91 1014.9
20240221161501 -17 0.0 0.0 0.00 0.00 0.00 1014.7
20240221160048 -17 0.0 0.0 0.00 0.00 0.00 1014.6
20240221154540 -17 0.0 0.0 0.00 0.00 0.00 1014.6
20240221153012 -17 0.0 0.0 0.00 0.00 0.00 1014.5
20240221151509 -17 0.0 0.0 0.00 0.00 0.00 1014.4
20240221150047 -17 0.0 0.0 0.00 0.00 0.00 1014.4
20240221144543 -17 0.0 0.0 0.00 0.00 0.00 1014.1
20240221143023 -17 0.0 0.0 0.00 0.00 0.00 1014.0
20240221141529 -17 0.0 0.0 0.00 0.00 0.00 1014.1
20240221140056 -17 0.0 0.0 0.00 0.00 0.00 1014.0
20240221134558 -17 0.0 0.0 0.00 0.00 0.00 1014.0
20240221133034 -17 0.0 0.0 0.00 0.00 0.00 1014.0
20240221131544 -17 0.0 0.0 0.00 0.00 0.00 1013.8
20240221130019 -17 0.0 0.0 0.00 0.00 0.00 1013.5
20240221124515 -17 0.0 0.0 0.00 0.00 0.00 1013.7
20240221123111 -17 0.0 0.0 0.00 0.00 0.00 1013.7
20240221121554 -17 0.0 0.0 0.00 0.00 0.00 1013.7